sensor_id;sensor_type;location;lat;lon;timestamp;P1;durP1;ratioP1;P2;durP2;ratioP2
77206;SDS011;66190;50.708;7.906;2023-10-19T00:00:36;6.45;;;2.50;;
77206;SDS011;66190;50.708;7.906;2023-10-19T00:03:06;6.70;;;2.53;;
77206;SDS011;66190;50.708;7.906;2023-10-19T00:05:35;7.10;;;2.63;;
77206;SDS011;66190;50.708;7.906;2023-10-19T00:08:02;6.43;;;2.28;;
77206;SDS011;66190;50.708;7.906;2023-10-19T00:10:37;7.70;;;2.85;;
77206;SDS011;66190;50.708;7.906;2023-10-19T00:13:03;7.47;;;3.33;;
77206;SDS011;66190;50.708;7.906;2023-10-19T00:15:33;7.47;;;2.92;;
77206;SDS011;66190;50.708;7.906;2023-10-19T00:18:05;6.60;;;2.50;;
77206;SDS011;66190;50.708;7.906;2023-10-19T00:20:52;6.30;;;2.73;;
77206;SDS011;66190;50.708;7.906;2023-10-19T00:23:24;6.90;;;2.45;;
77206;SDS011;66190;50.708;7.906;2023-10-19T00:26:00;8.35;;;3.10;;
77206;SDS011;66190;50.708;7.906;2023-10-19T00:28:35;8.10;;;3.30;;
77206;SDS011;66190;50.708;7.906;2023-10-19T00:31:01;8.63;;;3.67;;
77206;SDS011;66190;50.708;7.906;2023-10-19T00:33:33;7.57;;;3.07;;
77206;SDS011;66190;50.708;7.906;2023-10-19T00:36:04;7.40;;;3.20;;
77206;SDS011;66190;50.708;7.906;2023-10-19T00:38:36;8.15;;;3.47;;
77206;SDS011;66190;50.708;7.906;2023-10-19T00:41:03;7.30;;;2.72;;
77206;SDS011;66190;50.708;7.906;2023-10-19T00:43:52;7.88;;;3.53;;
77206;SDS011;66190;50.708;7.906;2023-10-19T00:46:23;8.60;;;3.00;;
77206;SDS011;66190;50.708;7.906;2023-10-19T00:48:56;8.25;;;3.15;;
77206;SDS011;66190;50.708;7.906;2023-10-19T00:51:31;8.27;;;3.78;;
77206;SDS011;66190;50.708;7.906;2023-10-19T00:54:05;9.77;;;3.70;;
77206;SDS011;66190;50.708;7.906;2023-10-19T00:56:36;8.98;;;3.70;;
77206;SDS011;66190;50.708;7.906;2023-10-19T00:59:02;8.00;;;3.60;;
77206;SDS011;66190;50.708;7.906;2023-10-19T01:01:41;7.72;;;2.92;;
77206;SDS011;66190;50.708;7.906;2023-10-19T01:04:11;8.30;;;3.08;;
77206;SDS011;66190;50.708;7.906;2023-10-19T01:06:41;7.70;;;2.92;;
77206;SDS011;66190;50.708;7.906;2023-10-19T01:09:12;6.85;;;2.70;;
77206;SDS011;66190;50.708;7.906;2023-10-19T01:11:40;6.83;;;2.50;;
77206;SDS011;66190;50.708;7.906;2023-10-19T01:14:20;7.38;;;3.03;;
77206;SDS011;66190;50.708;7.906;2023-10-19T01:16:47;7.45;;;3.40;;
77206;SDS011;66190;50.708;7.906;2023-10-19T01:19:14;8.30;;;3.50;;
77206;SDS011;66190;50.708;7.906;2023-10-19T01:21:43;7.43;;;2.85;;
77206;SDS011;66190;50.708;7.906;2023-10-19T01:24:11;8.23;;;3.30;;
77206;SDS011;66190;50.708;7.906;2023-10-19T01:26:41;8.25;;;3.08;;
77206;SDS011;66190;50.708;7.906;2023-10-19T01:29:07;8.13;;;3.50;;
77206;SDS011;66190;50.708;7.906;2023-10-19T01:31:39;8.80;;;3.78;;
77206;SDS011;66190;50.708;7.906;2023-10-19T01:34:17;10.48;;;4.05;;
77206;SDS011;66190;50.708;7.906;2023-10-19T01:36:45;8.55;;;3.63;;
77206;SDS011;66190;50.708;7.906;2023-10-19T01:39:15;9.90;;;4.25;;
77206;SDS011;66190;50.708;7.906;2023-10-19T01:41:44;8.73;;;4.05;;
77206;SDS011;66190;50.708;7.906;2023-10-19T01:44:10;12.15;;;4.85;;
77206;SDS011;66190;50.708;7.906;2023-10-19T01:46:38;10.73;;;4.75;;
77206;SDS011;66190;50.708;7.906;2023-10-19T01:49:05;11.32;;;4.40;;
77206;SDS011;66190;50.708;7.906;2023-10-19T01:51:33;10.93;;;4.88;;
77206;SDS011;66190;50.708;7.906;2023-10-19T01:54:05;12.57;;;4.88;;
77206;SDS011;66190;50.708;7.906;2023-10-19T01:56:32;12.43;;;4.72;;
77206;SDS011;66190;50.708;7.906;2023-10-19T01:59:01;15.63;;;5.10;;
77206;SDS011;66190;50.708;7.906;2023-10-19T02:01:29;14.18;;;5.40;;
77206;SDS011;66190;50.708;7.906;2023-10-19T02:03:57;14.77;;;5.28;;
77206;SDS011;66190;50.708;7.906;2023-10-19T02:06:25;19.90;;;5.63;;
77206;SDS011;66190;50.708;7.906;2023-10-19T02:08:59;16.30;;;5.18;;
77206;SDS011;66190;50.708;7.906;2023-10-19T02:11:26;15.07;;;5.43;;
77206;SDS011;66190;50.708;7.906;2023-10-19T02:13:54;24.65;;;6.65;;
77206;SDS011;66190;50.708;7.906;2023-10-19T02:16:21;17.88;;;6.20;;
77206;SDS011;66190;50.708;7.906;2023-10-19T02:18:48;17.45;;;5.88;;
77206;SDS011;66190;50.708;7.906;2023-10-19T02:21:15;18.13;;;5.72;;
77206;SDS011;66190;50.708;7.906;2023-10-19T02:23:46;17.25;;;6.13;;
77206;SDS011;66190;50.708;7.906;2023-10-19T02:26:15;15.90;;;6.47;;
77206;SDS011;66190;50.708;7.906;2023-10-19T02:28:41;16.50;;;6.57;;
77206;SDS011;66190;50.708;7.906;2023-10-19T02:31:09;17.90;;;6.60;;
77206;SDS011;66190;50.708;7.906;2023-10-19T02:33:43;17.73;;;6.47;;
77206;SDS011;66190;50.708;7.906;2023-10-19T02:36:12;19.45;;;6.07;;
77206;SDS011;66190;50.708;7.906;2023-10-19T02:38:40;16.23;;;6.78;;
77206;SDS011;66190;50.708;7.906;2023-10-19T02:41:08;25.23;;;7.30;;
77206;SDS011;66190;50.708;7.906;2023-10-19T02:43:35;34.17;;;7.00;;
77206;SDS011;66190;50.708;7.906;2023-10-19T02:46:01;35.10;;;7.75;;
77206;SDS011;66190;50.708;7.906;2023-10-19T02:48:28;29.98;;;8.20;;
77206;SDS011;66190;50.708;7.906;2023-10-19T02:50:53;19.73;;;6.77;;
77206;SDS011;66190;50.708;7.906;2023-10-19T02:53:19;17.77;;;6.57;;
77206;SDS011;66190;50.708;7.906;2023-10-19T02:55:44;24.20;;;6.68;;
77206;SDS011;66190;50.708;7.906;2023-10-19T02:58:10;15.88;;;6.35;;
77206;SDS011;66190;50.708;7.906;2023-10-19T03:00:39;15.63;;;6.57;;
77206;SDS011;66190;50.708;7.906;2023-10-19T03:03:05;14.90;;;5.85;;
77206;SDS011;66190;50.708;7.906;2023-10-19T03:05:31;16.35;;;6.82;;
77206;SDS011;66190;50.708;7.906;2023-10-19T03:07:59;15.43;;;6.28;;
77206;SDS011;66190;50.708;7.906;2023-10-19T03:10:30;16.75;;;7.18;;
77206;SDS011;66190;50.708;7.906;2023-10-19T03:13:07;15.68;;;6.53;;
77206;SDS011;66190;50.708;7.906;2023-10-19T03:15:38;15.48;;;7.00;;
77206;SDS011;66190;50.708;7.906;2023-10-19T03:18:07;17.88;;;6.72;;
77206;SDS011;66190;50.708;7.906;2023-10-19T03:20:33;17.08;;;7.15;;
77206;SDS011;66190;50.708;7.906;2023-10-19T03:22:59;15.00;;;6.53;;
77206;SDS011;66190;50.708;7.906;2023-10-19T03:25:27;17.47;;;7.23;;
77206;SDS011;66190;50.708;7.906;2023-10-19T03:28:28;15.00;;;6.68;;
77206;SDS011;66190;50.708;7.906;2023-10-19T03:30:54;15.35;;;6.43;;
77206;SDS011;66190;50.708;7.906;2023-10-19T03:33:20;18.90;;;6.78;;
77206;SDS011;66190;50.708;7.906;2023-10-19T03:35:51;21.08;;;6.38;;
77206;SDS011;66190;50.708;7.906;2023-10-19T03:38:17;17.08;;;6.43;;
77206;SDS011;66190;50.708;7.906;2023-10-19T03:40:44;16.60;;;7.15;;
77206;SDS011;66190;50.708;7.906;2023-10-19T03:43:17;19.48;;;6.97;;
77206;SDS011;66190;50.708;7.906;2023-10-19T03:45:46;20.57;;;7.83;;
77206;SDS011;66190;50.708;7.906;2023-10-19T03:48:18;21.63;;;8.82;;
77206;SDS011;66190;50.708;7.906;2023-10-19T03:50:59;26.52;;;9.75;;
77206;SDS011;66190;50.708;7.906;2023-10-19T03:53:27;23.60;;;9.60;;
77206;SDS011;66190;50.708;7.906;2023-10-19T03:55:52;20.57;;;8.37;;
77206;SDS011;66190;50.708;7.906;2023-10-19T03:58:19;17.15;;;6.60;;
77206;SDS011;66190;50.708;7.906;2023-10-19T04:00:46;24.13;;;8.47;;
77206;SDS011;66190;50.708;7.906;2023-10-19T04:03:14;26.30;;;7.43;;
77206;SDS011;66190;50.708;7.906;2023-10-19T04:05:39;29.05;;;7.55;;
77206;SDS011;66190;50.708;7.906;2023-10-19T04:08:06;22.27;;;7.47;;
77206;SDS011;66190;50.708;7.906;2023-10-19T04:10:46;17.38;;;6.75;;
77206;SDS011;66190;50.708;7.906;2023-10-19T04:13:31;20.23;;;7.05;;
77206;SDS011;66190;50.708;7.906;2023-10-19T04:15:56;21.57;;;6.90;;
77206;SDS011;66190;50.708;7.906;2023-10-19T04:18:22;19.97;;;7.13;;
77206;SDS011;66190;50.708;7.906;2023-10-19T04:20:50;20.55;;;7.15;;
77206;SDS011;66190;50.708;7.906;2023-10-19T04:23:16;30.73;;;7.50;;
77206;SDS011;66190;50.708;7.906;2023-10-19T04:25:41;29.95;;;7.80;;
77206;SDS011;66190;50.708;7.906;2023-10-19T04:28:07;20.73;;;6.93;;
77206;SDS011;66190;50.708;7.906;2023-10-19T04:30:32;21.17;;;7.10;;
77206;SDS011;66190;50.708;7.906;2023-10-19T04:32:58;28.20;;;6.88;;
77206;SDS011;66190;50.708;7.906;2023-10-19T04:35:26;20.15;;;7.32;;
77206;SDS011;66190;50.708;7.906;2023-10-19T04:37:55;22.27;;;7.18;;
77206;SDS011;66190;50.708;7.906;2023-10-19T04:40:22;18.23;;;6.87;;
77206;SDS011;66190;50.708;7.906;2023-10-19T04:42:48;18.38;;;7.28;;
77206;SDS011;66190;50.708;7.906;2023-10-19T04:45:15;16.52;;;6.90;;
77206;SDS011;66190;50.708;7.906;2023-10-19T04:47:41;18.93;;;6.97;;
77206;SDS011;66190;50.708;7.906;2023-10-19T04:50:06;22.47;;;7.43;;
77206;SDS011;66190;50.708;7.906;2023-10-19T04:52:33;22.60;;;7.45;;
77206;SDS011;66190;50.708;7.906;2023-10-19T04:54:58;22.10;;;8.02;;
77206;SDS011;66190;50.708;7.906;2023-10-19T04:57:24;17.30;;;6.27;;
77206;SDS011;66190;50.708;7.906;2023-10-19T04:59:51;17.73;;;6.57;;
77206;SDS011;66190;50.708;7.906;2023-10-19T05:02:16;14.87;;;5.93;;
77206;SDS011;66190;50.708;7.906;2023-10-19T05:04:42;16.50;;;6.32;;
77206;SDS011;66190;50.708;7.906;2023-10-19T05:07:08;16.05;;;6.20;;
77206;SDS011;66190;50.708;7.906;2023-10-19T05:09:37;14.80;;;6.00;;
77206;SDS011;66190;50.708;7.906;2023-10-19T05:12:06;16.48;;;6.22;;
77206;SDS011;66190;50.708;7.906;2023-10-19T05:14:35;14.45;;;6.07;;
77206;SDS011;66190;50.708;7.906;2023-10-19T05:17:04;14.82;;;5.15;;
77206;SDS011;66190;50.708;7.906;2023-10-19T05:19:33;13.30;;;5.50;;
77206;SDS011;66190;50.708;7.906;2023-10-19T05:22:00;13.63;;;6.32;;
77206;SDS011;66190;50.708;7.906;2023-10-19T05:24:26;11.70;;;4.25;;
77206;SDS011;66190;50.708;7.906;2023-10-19T05:26:52;13.80;;;5.00;;
77206;SDS011;66190;50.708;7.906;2023-10-19T05:29:18;10.18;;;4.35;;
77206;SDS011;66190;50.708;7.906;2023-10-19T05:31:44;10.75;;;4.63;;
77206;SDS011;66190;50.708;7.906;2023-10-19T05:34:10;10.40;;;3.77;;
77206;SDS011;66190;50.708;7.906;2023-10-19T05:36:35;11.00;;;4.50;;
77206;SDS011;66190;50.708;7.906;2023-10-19T05:39:01;12.40;;;4.77;;
77206;SDS011;66190;50.708;7.906;2023-10-19T05:41:26;10.27;;;4.13;;
77206;SDS011;66190;50.708;7.906;2023-10-19T05:43:52;9.93;;;4.37;;
77206;SDS011;66190;50.708;7.906;2023-10-19T05:46:18;10.77;;;4.55;;
77206;SDS011;66190;50.708;7.906;2023-10-19T05:48:46;10.57;;;4.50;;
77206;SDS011;66190;50.708;7.906;2023-10-19T05:51:14;12.45;;;4.50;;
77206;SDS011;66190;50.708;7.906;2023-10-19T05:53:40;10.20;;;4.07;;
77206;SDS011;66190;50.708;7.906;2023-10-19T05:56:06;11.75;;;4.38;;
77206;SDS011;66190;50.708;7.906;2023-10-19T05:58:32;10.80;;;4.60;;
77206;SDS011;66190;50.708;7.906;2023-10-19T06:01:00;12.00;;;4.30;;
77206;SDS011;66190;50.708;7.906;2023-10-19T06:03:25;11.60;;;4.63;;
77206;SDS011;66190;50.708;7.906;2023-10-19T06:05:51;10.37;;;4.60;;
77206;SDS011;66190;50.708;7.906;2023-10-19T06:08:21;10.38;;;4.43;;
77206;SDS011;66190;50.708;7.906;2023-10-19T06:10:50;9.50;;;3.50;;
77206;SDS011;66190;50.708;7.906;2023-10-19T06:13:19;10.07;;;3.90;;
77206;SDS011;66190;50.708;7.906;2023-10-19T06:15:45;9.15;;;3.50;;
77206;SDS011;66190;50.708;7.906;2023-10-19T06:18:11;10.30;;;3.72;;
77206;SDS011;66190;50.708;7.906;2023-10-19T06:20:38;9.15;;;4.28;;
77206;SDS011;66190;50.708;7.906;2023-10-19T06:23:09;9.80;;;3.97;;
77206;SDS011;66190;50.708;7.906;2023-10-19T06:25:35;14.43;;;4.22;;
77206;SDS011;66190;50.708;7.906;2023-10-19T06:28:01;9.15;;;3.65;;
77206;SDS011;66190;50.708;7.906;2023-10-19T06:30:27;8.43;;;3.60;;
77206;SDS011;66190;50.708;7.906;2023-10-19T06:32:53;11.98;;;4.25;;
77206;SDS011;66190;50.708;7.906;2023-10-19T06:35:20;10.88;;;4.20;;
77206;SDS011;66190;50.708;7.906;2023-10-19T06:37:46;9.88;;;4.30;;
77206;SDS011;66190;50.708;7.906;2023-10-19T06:40:13;11.55;;;4.40;;
77206;SDS011;66190;50.708;7.906;2023-10-19T06:42:43;10.43;;;4.07;;
77206;SDS011;66190;50.708;7.906;2023-10-19T06:45:10;10.02;;;4.05;;
77206;SDS011;66190;50.708;7.906;2023-10-19T06:47:39;11.77;;;4.82;;
77206;SDS011;66190;50.708;7.906;2023-10-19T06:50:12;11.50;;;4.90;;
77206;SDS011;66190;50.708;7.906;2023-10-19T06:52:40;12.07;;;5.15;;
77206;SDS011;66190;50.708;7.906;2023-10-19T06:55:08;10.73;;;4.55;;
77206;SDS011;66190;50.708;7.906;2023-10-19T06:57:42;13.57;;;5.40;;
77206;SDS011;66190;50.708;7.906;2023-10-19T07:00:09;12.48;;;5.15;;
77206;SDS011;66190;50.708;7.906;2023-10-19T07:02:44;12.25;;;4.57;;
77206;SDS011;66190;50.708;7.906;2023-10-19T07:05:11;11.10;;;4.65;;
77206;SDS011;66190;50.708;7.906;2023-10-19T07:07:41;13.88;;;4.97;;
77206;SDS011;66190;50.708;7.906;2023-10-19T07:10:08;12.02;;;4.88;;
77206;SDS011;66190;50.708;7.906;2023-10-19T07:12:38;11.73;;;4.85;;
77206;SDS011;66190;50.708;7.906;2023-10-19T07:15:06;10.63;;;4.60;;
77206;SDS011;66190;50.708;7.906;2023-10-19T07:17:35;13.38;;;4.97;;
77206;SDS011;66190;50.708;7.906;2023-10-19T07:20:02;10.23;;;4.45;;
77206;SDS011;66190;50.708;7.906;2023-10-19T07:22:31;12.88;;;4.57;;
77206;SDS011;66190;50.708;7.906;2023-10-19T07:25:03;12.38;;;5.25;;
77206;SDS011;66190;50.708;7.906;2023-10-19T07:27:33;12.23;;;4.28;;
77206;SDS011;66190;50.708;7.906;2023-10-19T07:29:59;12.27;;;5.67;;
77206;SDS011;66190;50.708;7.906;2023-10-19T07:32:34;13.50;;;4.97;;
77206;SDS011;66190;50.708;7.906;2023-10-19T07:34:59;10.90;;;4.90;;
77206;SDS011;66190;50.708;7.906;2023-10-19T07:37:24;13.67;;;5.03;;
77206;SDS011;66190;50.708;7.906;2023-10-19T07:39:50;11.83;;;5.20;;
77206;SDS011;66190;50.708;7.906;2023-10-19T07:42:17;12.15;;;5.30;;
77206;SDS011;66190;50.708;7.906;2023-10-19T07:44:43;13.37;;;5.20;;
77206;SDS011;66190;50.708;7.906;2023-10-19T07:47:09;10.55;;;4.30;;
77206;SDS011;66190;50.708;7.906;2023-10-19T07:49:37;12.43;;;4.82;;
77206;SDS011;66190;50.708;7.906;2023-10-19T07:52:06;12.85;;;4.32;;
77206;SDS011;66190;50.708;7.906;2023-10-19T07:54:33;11.95;;;4.63;;
77206;SDS011;66190;50.708;7.906;2023-10-19T07:56:59;13.47;;;4.40;;
77206;SDS011;66190;50.708;7.906;2023-10-19T07:59:28;13.57;;;5.15;;
77206;SDS011;66190;50.708;7.906;2023-10-19T08:01:54;14.60;;;5.55;;
77206;SDS011;66190;50.708;7.906;2023-10-19T08:04:19;13.30;;;5.40;;
77206;SDS011;66190;50.708;7.906;2023-10-19T08:06:44;15.23;;;4.87;;
77206;SDS011;66190;50.708;7.906;2023-10-19T08:09:12;13.45;;;5.43;;
77206;SDS011;66190;50.708;7.906;2023-10-19T08:11:37;11.97;;;4.73;;
77206;SDS011;66190;50.708;7.906;2023-10-19T08:14:02;11.00;;;4.73;;
77206;SDS011;66190;50.708;7.906;2023-10-19T08:16:28;11.25;;;4.68;;
77206;SDS011;66190;50.708;7.906;2023-10-19T08:18:53;11.40;;;4.57;;
77206;SDS011;66190;50.708;7.906;2023-10-19T08:21:19;9.87;;;4.00;;
77206;SDS011;66190;50.708;7.906;2023-10-19T08:23:44;7.97;;;3.37;;
77206;SDS011;66190;50.708;7.906;2023-10-19T08:26:10;11.98;;;3.63;;
77206;SDS011;66190;50.708;7.906;2023-10-19T08:28:36;14.40;;;3.63;;
77206;SDS011;66190;50.708;7.906;2023-10-19T08:31:02;11.88;;;3.30;;
77206;SDS011;66190;50.708;7.906;2023-10-19T08:33:28;8.52;;;3.10;;
77206;SDS011;66190;50.708;7.906;2023-10-19T08:35:55;9.65;;;3.40;;
77206;SDS011;66190;50.708;7.906;2023-10-19T08:38:21;10.30;;;2.65;;
77206;SDS011;66190;50.708;7.906;2023-10-19T08:40:48;8.73;;;3.28;;
77206;SDS011;66190;50.708;7.906;2023-10-19T08:43:15;14.77;;;4.05;;
77206;SDS011;66190;50.708;7.906;2023-10-19T08:45:43;8.73;;;3.17;;
77206;SDS011;66190;50.708;7.906;2023-10-19T08:48:09;10.07;;;3.00;;
77206;SDS011;66190;50.708;7.906;2023-10-19T08:50:36;9.75;;;3.03;;
77206;SDS011;66190;50.708;7.906;2023-10-19T08:53:06;8.00;;;2.50;;
77206;SDS011;66190;50.708;7.906;2023-10-19T08:55:33;11.02;;;3.03;;
77206;SDS011;66190;50.708;7.906;2023-10-19T08:58:02;8.80;;;2.92;;
77206;SDS011;66190;50.708;7.906;2023-10-19T09:00:42;8.30;;;2.75;;
77206;SDS011;66190;50.708;7.906;2023-10-19T09:03:12;8.23;;;3.00;;
77206;SDS011;66190;50.708;7.906;2023-10-19T09:05:39;8.95;;;2.85;;
77206;SDS011;66190;50.708;7.906;2023-10-19T09:08:05;8.05;;;2.90;;
77206;SDS011;66190;50.708;7.906;2023-10-19T09:10:31;8.80;;;2.70;;
77206;SDS011;66190;50.708;7.906;2023-10-19T09:13:06;9.83;;;3.37;;
77206;SDS011;66190;50.708;7.906;2023-10-19T09:15:37;8.18;;;2.60;;
77206;SDS011;66190;50.708;7.906;2023-10-19T09:18:20;8.63;;;2.35;;
77206;SDS011;66190;50.708;7.906;2023-10-19T09:20:47;7.75;;;2.40;;
77206;SDS011;66190;50.708;7.906;2023-10-19T09:23:20;6.70;;;2.10;;
77206;SDS011;66190;50.708;7.906;2023-10-19T09:25:47;8.50;;;1.98;;
77206;SDS011;66190;50.708;7.906;2023-10-19T09:28:14;7.13;;;2.50;;
77206;SDS011;66190;50.708;7.906;2023-10-19T09:30:40;10.73;;;2.50;;
77206;SDS011;66190;50.708;7.906;2023-10-19T09:33:06;8.77;;;2.72;;
77206;SDS011;66190;50.708;7.906;2023-10-19T09:35:34;8.23;;;3.00;;
77206;SDS011;66190;50.708;7.906;2023-10-19T09:38:02;9.60;;;2.60;;
77206;SDS011;66190;50.708;7.906;2023-10-19T09:40:30;8.93;;;2.30;;
77206;SDS011;66190;50.708;7.906;2023-10-19T09:42:56;7.45;;;2.30;;
77206;SDS011;66190;50.708;7.906;2023-10-19T09:45:23;5.33;;;1.90;;
77206;SDS011;66190;50.708;7.906;2023-10-19T09:47:53;8.70;;;2.17;;
77206;SDS011;66190;50.708;7.906;2023-10-19T09:50:19;9.50;;;2.50;;
77206;SDS011;66190;50.708;7.906;2023-10-19T09:52:45;7.23;;;2.03;;
77206;SDS011;66190;50.708;7.906;2023-10-19T09:57:59;9.27;;;2.40;;
77206;SDS011;66190;50.708;7.906;2023-10-19T10:00:32;8.95;;;2.30;;
77206;SDS011;66190;50.708;7.906;2023-10-19T10:02:59;10.27;;;2.67;;
77206;SDS011;66190;50.708;7.906;2023-10-19T10:10:43;7.68;;;2.65;;
77206;SDS011;66190;50.708;7.906;2023-10-19T10:15:49;7.47;;;2.75;;
77206;SDS011;66190;50.708;7.906;2023-10-19T10:18:18;7.83;;;2.40;;
77206;SDS011;66190;50.708;7.906;2023-10-19T10:20:43;7.13;;;2.15;;
77206;SDS011;66190;50.708;7.906;2023-10-19T10:23:20;8.48;;;3.10;;
77206;SDS011;66190;50.708;7.906;2023-10-19T10:25:52;9.88;;;2.55;;
77206;SDS011;66190;50.708;7.906;2023-10-19T10:28:19;7.70;;;2.13;;
77206;SDS011;66190;50.708;7.906;2023-10-19T10:33:47;9.43;;;2.67;;
77206;SDS011;66190;50.708;7.906;2023-10-19T10:36:15;9.30;;;2.20;;
77206;SDS011;66190;50.708;7.906;2023-10-19T10:38:48;11.65;;;2.15;;
77206;SDS011;66190;50.708;7.906;2023-10-19T10:41:24;6.30;;;2.40;;
77206;SDS011;66190;50.708;7.906;2023-10-19T10:43:57;7.47;;;2.08;;
77206;SDS011;66190;50.708;7.906;2023-10-19T10:46:26;9.70;;;2.50;;
77206;SDS011;66190;50.708;7.906;2023-10-19T10:48:53;10.32;;;2.53;;
77206;SDS011;66190;50.708;7.906;2023-10-19T10:51:20;5.60;;;2.20;;
77206;SDS011;66190;50.708;7.906;2023-10-19T10:53:48;9.23;;;1.95;;
77206;SDS011;66190;50.708;7.906;2023-10-19T10:56:18;6.30;;;2.00;;
77206;SDS011;66190;50.708;7.906;2023-10-19T10:58:44;7.82;;;2.53;;
77206;SDS011;66190;50.708;7.906;2023-10-19T11:01:10;7.27;;;2.23;;
77206;SDS011;66190;50.708;7.906;2023-10-19T11:03:37;6.63;;;2.00;;
77206;SDS011;66190;50.708;7.906;2023-10-19T11:06:06;7.43;;;2.17;;
77206;SDS011;66190;50.708;7.906;2023-10-19T11:08:35;9.05;;;2.67;;
77206;SDS011;66190;50.708;7.906;2023-10-19T11:11:10;7.88;;;2.13;;
77206;SDS011;66190;50.708;7.906;2023-10-19T11:13:36;7.15;;;2.00;;
77206;SDS011;66190;50.708;7.906;2023-10-19T11:16:04;9.05;;;2.35;;
77206;SDS011;66190;50.708;7.906;2023-10-19T11:18:48;7.37;;;2.40;;
77206;SDS011;66190;50.708;7.906;2023-10-19T11:21:15;14.02;;;6.38;;
77206;SDS011;66190;50.708;7.906;2023-10-19T11:26:10;11.65;;;4.97;;
77206;SDS011;66190;50.708;7.906;2023-10-19T11:28:36;12.90;;;7.15;;
77206;SDS011;66190;50.708;7.906;2023-10-19T11:33:39;12.43;;;4.88;;
77206;SDS011;66190;50.708;7.906;2023-10-19T11:36:06;8.93;;;3.50;;
77206;SDS011;66190;50.708;7.906;2023-10-19T11:38:32;9.33;;;3.30;;
77206;SDS011;66190;50.708;7.906;2023-10-19T11:40:57;10.83;;;3.33;;
77206;SDS011;66190;50.708;7.906;2023-10-19T11:43:22;10.05;;;3.60;;
77206;SDS011;66190;50.708;7.906;2023-10-19T11:45:48;9.07;;;3.70;;
77206;SDS011;66190;50.708;7.906;2023-10-19T11:48:14;9.15;;;3.53;;
77206;SDS011;66190;50.708;7.906;2023-10-19T11:50:40;9.27;;;4.00;;
77206;SDS011;66190;50.708;7.906;2023-10-19T11:53:06;10.57;;;3.40;;
77206;SDS011;66190;50.708;7.906;2023-10-19T11:55:34;10.80;;;4.20;;
77206;SDS011;66190;50.708;7.906;2023-10-19T11:58:00;13.05;;;4.10;;
77206;SDS011;66190;50.708;7.906;2023-10-19T12:00:26;11.60;;;4.40;;
77206;SDS011;66190;50.708;7.906;2023-10-19T12:02:58;8.77;;;3.50;;
77206;SDS011;66190;50.708;7.906;2023-10-19T12:05:24;10.60;;;3.42;;
77206;SDS011;66190;50.708;7.906;2023-10-19T12:07:50;11.70;;;3.37;;
77206;SDS011;66190;50.708;7.906;2023-10-19T12:10:17;9.73;;;3.15;;
77206;SDS011;66190;50.708;7.906;2023-10-19T12:12:45;10.57;;;3.50;;
77206;SDS011;66190;50.708;7.906;2023-10-19T12:15:10;9.43;;;3.00;;
77206;SDS011;66190;50.708;7.906;2023-10-19T12:17:37;8.93;;;2.97;;
77206;SDS011;66190;50.708;7.906;2023-10-19T12:20:03;8.03;;;3.13;;
77206;SDS011;66190;50.708;7.906;2023-10-19T12:22:31;9.25;;;3.15;;
77206;SDS011;66190;50.708;7.906;2023-10-19T12:25:01;10.32;;;3.35;;
77206;SDS011;66190;50.708;7.906;2023-10-19T12:27:27;11.05;;;3.30;;
77206;SDS011;66190;50.708;7.906;2023-10-19T12:29:53;11.25;;;4.30;;
77206;SDS011;66190;50.708;7.906;2023-10-19T12:32:19;8.27;;;3.47;;
77206;SDS011;66190;50.708;7.906;2023-10-19T12:34:44;10.67;;;4.03;;
77206;SDS011;66190;50.708;7.906;2023-10-19T12:37:10;10.13;;;4.30;;
77206;SDS011;66190;50.708;7.906;2023-10-19T12:39:37;10.02;;;3.90;;
77206;SDS011;66190;50.708;7.906;2023-10-19T12:42:09;8.10;;;3.23;;
77206;SDS011;66190;50.708;7.906;2023-10-19T12:44:35;9.57;;;3.92;;
77206;SDS011;66190;50.708;7.906;2023-10-19T12:47:10;11.93;;;3.90;;
77206;SDS011;66190;50.708;7.906;2023-10-19T12:49:39;8.38;;;3.60;;
77206;SDS011;66190;50.708;7.906;2023-10-19T12:52:05;9.32;;;3.63;;
77206;SDS011;66190;50.708;7.906;2023-10-19T12:54:35;9.18;;;3.70;;
77206;SDS011;66190;50.708;7.906;2023-10-19T12:57:01;10.80;;;3.97;;
77206;SDS011;66190;50.708;7.906;2023-10-19T12:59:29;9.80;;;3.55;;
77206;SDS011;66190;50.708;7.906;2023-10-19T13:01:55;10.50;;;4.00;;
77206;SDS011;66190;50.708;7.906;2023-10-19T13:04:23;9.75;;;3.63;;
77206;SDS011;66190;50.708;7.906;2023-10-19T13:06:49;8.13;;;3.42;;
77206;SDS011;66190;50.708;7.906;2023-10-19T13:09:16;7.60;;;3.13;;
77206;SDS011;66190;50.708;7.906;2023-10-19T13:11:47;9.70;;;3.50;;
77206;SDS011;66190;50.708;7.906;2023-10-19T13:14:16;9.82;;;4.00;;
77206;SDS011;66190;50.708;7.906;2023-10-19T13:16:42;11.30;;;4.07;;
77206;SDS011;66190;50.708;7.906;2023-10-19T13:19:07;9.10;;;4.00;;
77206;SDS011;66190;50.708;7.906;2023-10-19T13:21:41;11.35;;;4.53;;
77206;SDS011;66190;50.708;7.906;2023-10-19T13:24:07;10.18;;;3.60;;
77206;SDS011;66190;50.708;7.906;2023-10-19T13:26:33;8.80;;;3.92;;
77206;SDS011;66190;50.708;7.906;2023-10-19T13:28:59;10.50;;;4.07;;
77206;SDS011;66190;50.708;7.906;2023-10-19T13:31:25;10.25;;;4.07;;
77206;SDS011;66190;50.708;7.906;2023-10-19T13:33:51;14.23;;;3.55;;
77206;SDS011;66190;50.708;7.906;2023-10-19T13:36:17;9.93;;;3.55;;
77206;SDS011;66190;50.708;7.906;2023-10-19T13:38:44;12.07;;;3.60;;
77206;SDS011;66190;50.708;7.906;2023-10-19T13:41:10;10.88;;;3.80;;
77206;SDS011;66190;50.708;7.906;2023-10-19T13:43:36;8.77;;;4.20;;
77206;SDS011;66190;50.708;7.906;2023-10-19T13:46:02;8.77;;;3.93;;
77206;SDS011;66190;50.708;7.906;2023-10-19T13:48:29;9.55;;;4.40;;
77206;SDS011;66190;50.708;7.906;2023-10-19T13:50:55;8.95;;;4.15;;
77206;SDS011;66190;50.708;7.906;2023-10-19T13:53:25;10.93;;;4.22;;
77206;SDS011;66190;50.708;7.906;2023-10-19T13:55:51;9.60;;;4.18;;
77206;SDS011;66190;50.708;7.906;2023-10-19T13:58:17;9.68;;;4.47;;
77206;SDS011;66190;50.708;7.906;2023-10-19T14:00:42;9.63;;;4.40;;
77206;SDS011;66190;50.708;7.906;2023-10-19T14:03:09;10.18;;;4.00;;
77206;SDS011;66190;50.708;7.906;2023-10-19T14:05:36;10.27;;;4.00;;
77206;SDS011;66190;50.708;7.906;2023-10-19T14:08:06;8.63;;;2.90;;
77206;SDS011;66190;50.708;7.906;2023-10-19T14:10:32;8.68;;;3.72;;
77206;SDS011;66190;50.708;7.906;2023-10-19T14:12:58;7.40;;;3.33;;
77206;SDS011;66190;50.708;7.906;2023-10-19T14:15:24;9.70;;;3.70;;
77206;SDS011;66190;50.708;7.906;2023-10-19T14:17:50;9.07;;;3.38;;
77206;SDS011;66190;50.708;7.906;2023-10-19T14:20:16;9.02;;;3.72;;
77206;SDS011;66190;50.708;7.906;2023-10-19T14:22:43;9.98;;;4.60;;
77206;SDS011;66190;50.708;7.906;2023-10-19T14:25:10;10.77;;;4.57;;
77206;SDS011;66190;50.708;7.906;2023-10-19T14:27:42;12.60;;;3.70;;
77206;SDS011;66190;50.708;7.906;2023-10-19T14:30:10;12.20;;;3.90;;
77206;SDS011;66190;50.708;7.906;2023-10-19T14:32:41;9.35;;;3.80;;
77206;SDS011;66190;50.708;7.906;2023-10-19T14:35:11;9.00;;;3.67;;
77206;SDS011;66190;50.708;7.906;2023-10-19T14:37:44;7.37;;;3.33;;
77206;SDS011;66190;50.708;7.906;2023-10-19T14:40:18;9.23;;;3.70;;
77206;SDS011;66190;50.708;7.906;2023-10-19T14:42:46;9.82;;;3.72;;
77206;SDS011;66190;50.708;7.906;2023-10-19T14:45:13;8.57;;;3.58;;
77206;SDS011;66190;50.708;7.906;2023-10-19T14:47:41;9.25;;;3.70;;
77206;SDS011;66190;50.708;7.906;2023-10-19T14:50:07;9.63;;;3.80;;
77206;SDS011;66190;50.708;7.906;2023-10-19T14:52:36;7.95;;;3.70;;
77206;SDS011;66190;50.708;7.906;2023-10-19T14:55:04;8.00;;;3.55;;
77206;SDS011;66190;50.708;7.906;2023-10-19T14:57:31;7.90;;;3.70;;
77206;SDS011;66190;50.708;7.906;2023-10-19T14:59:58;10.73;;;3.80;;
77206;SDS011;66190;50.708;7.906;2023-10-19T15:02:32;7.20;;;3.58;;
77206;SDS011;66190;50.708;7.906;2023-10-19T15:04:57;9.17;;;3.60;;